South Boston, VA

11:10 PM EST on February 05, 2016 (GMT -0500)
Union Community Near South Boston, Va | | Change Station
CLOSE
Current Station
Personal Weather Station
Location: South Boston, VA
Elevation: 440 ft
Nearby Weather Stations
Active Advisory: Flood Warning Active Notice: Record Report

Elev 440 ft 36.70 °N, 79.00 °W | Updated 2 minutes ago

Clear
Clear
24.8 °F
Feels Like 25 °F
N
0.0
Wind Variable Wind from NNE
Gusts 0.0 mph

Today
High -- | Low -- °F
--% Chance of Precip.
Yesterday
High -- | Low -- °F
Precip. -- in
Pressure 30.40 in
Visibility 10.0 miles
Clouds Clear
Windchill 25 °F
Dew Point Not available.
Humidity Not available.
Rainfall 0.07 in
Snow Depth Not available.
7:14 AM 5:45 PM
Waning Crescent, 8% visible
METAR KDAN 060353Z AUTO 00000KT 10SM CLR M02/M07 A3040 RMK AO2 SLP294 T10221072
Pressure 30.40 in
Visibility 10.0 miles
Clouds Clear
Windchill 25 °F
Dew Point Not available.
Humidity Not available.
Rainfall 0.07 in
Snow Depth Not available.
7:14 AM 5:45 PM
Waning Crescent, 8% visible
METAR KDAN 060353Z AUTO 00000KT 10SM CLR M02/M07 A3040 RMK AO2 SLP294 T10221072

10-Day Weather Forecast

Almanac

Astronomy

Feb. 05, 2016 Rise Set
Actual Time
Civil Twilight
Nautical Twilight
Astronomical Twilight
Moon
Length of Visible Light
Length of Day
Tomorrow will be .
, % of the Moon is Illuminated

Today's Extremes

State Highs State Lows

Community

WunderPhotos

Upload Photos

1,890,916 photos uploaded!

WunderBlog® & News

Nearby

Air Quality

  Air Quality AQ Index Pollutant
Not available.

Snow Depth

Station Depth Elevation

Earthquake Activity

City Distance Mag. Time & Date
Minimum magnitude displayed is 2.5.

Coastal Water Temperatures

Place Temperature

Stations

Nearby Weather Stations

Station Location Temp. Windchill Dew Point Humidity Wind Precip. Elev Updated Type
                   

Watches & Warnings

Flood Warning
Issued: 5:44 PM EST Feb. 5, 2016 – National Weather Service

The Flood Warning continues for
the Dan River at South Boston.
* Until Saturday afternoon.
* At 05pm Friday the stage was 23.0 feet.

* Flood stage is 19.0 feet.
* The river has crested and will fall below flood stage early tomorrow.
* This crest compares to a previous crest of 22.5 feet on Nov 11 2015.


Lat... Lon 3660 7898 3672 7902 3675 7884 3668 7879